createdAt,value
2023-04-21T05:30:31.126Z,14.70
2023-04-21T05:32:59.700Z,15.63
2023-04-21T05:35:28.562Z,13.53
2023-04-21T05:37:56.943Z,14.93
2023-04-21T05:40:25.305Z,14.50
2023-04-21T05:42:53.613Z,13.97
2023-04-21T05:45:22.704Z,13.93
2023-04-21T05:47:52.408Z,14.70
2023-04-21T05:50:21.605Z,14.80
2023-04-21T05:52:49.920Z,14.33
2023-04-21T05:55:18.724Z,19.17
2023-04-21T05:57:47.545Z,16.87
2023-04-21T06:00:17.383Z,18.83
2023-04-21T06:02:46.357Z,19.23
2023-04-21T06:05:16.337Z,20.70
2023-04-21T06:07:45.569Z,24.92
2023-04-21T06:10:15.401Z,26.00
2023-04-21T06:12:44.752Z,28.27
2023-04-21T06:15:13.246Z,30.23
2023-04-21T06:17:41.608Z,28.77
2023-04-21T06:20:11.720Z,31.30
2023-04-21T06:22:41.446Z,30.13
2023-04-21T06:25:10.481Z,31.43
2023-04-21T06:27:38.846Z,34.07
2023-04-21T06:30:09.036Z,31.97
2023-04-21T06:32:37.908Z,31.63
2023-04-21T06:35:06.995Z,31.08
2023-04-21T06:37:35.342Z,28.43
2023-04-21T06:40:05.828Z,29.45
2023-04-21T06:42:35.237Z,29.48
2023-04-21T06:45:03.647Z,30.03
2023-04-21T06:47:32.158Z,31.17
2023-04-21T06:50:00.606Z,26.95
2023-04-21T06:52:29.436Z,29.08
2023-04-21T06:54:58.192Z,25.15
2023-04-21T06:57:28.111Z,26.58
2023-04-21T06:59:57.096Z,27.88
2023-04-21T07:02:25.462Z,27.03
2023-04-21T07:04:54.370Z,26.67
2023-04-21T07:07:23.151Z,26.58
2023-04-21T07:09:51.687Z,26.30
2023-04-21T07:12:20.061Z,23.98
2023-04-21T07:14:49.768Z,24.50
2023-04-21T07:17:18.128Z,25.42
2023-04-21T07:19:46.897Z,23.52
2023-04-21T07:22:15.345Z,23.95
2023-04-21T07:24:43.948Z,23.35
2023-04-21T07:27:12.313Z,22.65
2023-04-21T07:29:40.745Z,21.83
2023-04-21T07:32:10.581Z,23.63
2023-04-21T07:34:38.925Z,23.95
2023-04-21T07:37:07.317Z,22.65
2023-04-21T07:39:35.880Z,22.50
2023-04-21T07:42:08.520Z,24.73
2023-04-21T07:44:36.866Z,21.80
2023-04-21T07:47:05.978Z,25.27
2023-04-21T07:49:35.752Z,23.63
2023-04-21T07:52:04.230Z,25.20
2023-04-21T07:54:33.213Z,23.92
2023-04-21T07:57:02.158Z,23.15
2023-04-21T07:59:31.256Z,23.35
2023-04-21T08:01:59.795Z,21.60
2023-04-21T08:04:28.469Z,23.15
2023-04-21T08:06:59.209Z,23.52
2023-04-21T08:09:27.967Z,22.45
2023-04-21T08:11:57.155Z,21.88
2023-04-21T08:14:27.221Z,22.90
2023-04-21T08:16:57.186Z,23.25
2023-04-21T08:19:26.408Z,21.00
2023-04-21T08:21:55.270Z,22.85
2023-04-21T08:24:25.351Z,23.10
2023-04-21T08:26:53.753Z,22.75
2023-04-21T08:29:22.545Z,19.60
2023-04-21T08:31:50.985Z,22.63
2023-04-21T08:34:20.993Z,19.52
2023-04-21T08:36:50.054Z,20.58
2023-04-21T08:39:19.137Z,20.20
2023-04-21T08:41:49.277Z,19.15
2023-04-21T08:44:19.513Z,19.40
2023-04-21T08:46:50.380Z,19.60
2023-04-21T08:49:21.987Z,19.10
2023-04-21T08:51:51.362Z,17.88
2023-04-21T08:54:19.908Z,18.10
2023-04-21T08:56:50.439Z,18.33
2023-04-21T08:59:18.995Z,18.55
2023-04-21T09:02:10.853Z,17.52
2023-04-21T09:04:40.885Z,17.48
2023-04-21T09:07:10.078Z,17.50
2023-04-21T09:09:55.125Z,16.70
2023-04-21T09:12:25.571Z,15.38
2023-04-21T09:14:54.764Z,18.05
2023-04-21T09:17:28.480Z,15.07
2023-04-21T09:19:57.018Z,14.90
2023-04-21T09:22:29.523Z,14.68
2023-04-21T09:25:00.618Z,14.07
2023-04-21T09:27:30.571Z,14.27
2023-04-21T09:30:06.100Z,14.07
2023-04-21T09:32:38.092Z,14.32
2023-04-21T09:35:08.362Z,13.95
2023-04-21T09:37:36.862Z,14.20
2023-04-21T09:40:06.551Z,13.27
2023-04-21T09:42:39.430Z,12.95
2023-04-21T09:47:43.980Z,11.18
2023-04-21T09:50:14.742Z,10.40
2023-04-21T09:52:45.164Z,11.07
2023-04-21T09:55:14.381Z,9.95
2023-04-21T09:57:48.727Z,9.45
2023-04-21T10:00:22.588Z,10.18
2023-04-21T10:02:54.294Z,9.38
2023-04-21T10:05:24.061Z,9.98
2023-04-21T10:07:53.319Z,9.38
2023-04-21T10:10:25.919Z,10.75
2023-04-21T10:12:56.600Z,9.93
2023-04-21T10:15:33.018Z,9.80
2023-04-21T10:18:16.297Z,10.43
2023-04-21T10:20:58.618Z,9.10
2023-04-21T10:23:31.796Z,9.05
2023-04-21T10:26:12.800Z,9.18
2023-04-21T10:28:47.711Z,9.77
2023-04-21T10:31:25.944Z,10.82
2023-04-21T10:34:16.959Z,8.98
2023-04-21T10:36:53.050Z,9.95
2023-04-21T10:39:28.552Z,9.88
2023-04-21T10:41:59.226Z,8.52
2023-04-21T10:44:30.113Z,8.75
2023-04-21T10:47:00.887Z,8.50
2023-04-21T10:49:31.370Z,9.35
2023-04-21T10:52:08.640Z,9.10
2023-04-21T10:54:45.800Z,8.90
2023-04-21T10:57:17.351Z,7.97
2023-04-21T10:59:49.503Z,7.93
2023-04-21T11:02:19.633Z,7.15
2023-04-21T11:04:52.903Z,8.20
2023-04-21T11:07:23.889Z,7.22
2023-04-21T11:09:59.413Z,6.43
2023-04-21T11:12:30.137Z,6.85
2023-04-21T11:15:00.465Z,5.72
2023-04-21T11:17:28.896Z,6.32
2023-04-21T11:19:58.078Z,5.47
2023-04-21T11:22:27.641Z,5.32
2023-04-21T11:24:58.701Z,4.93
2023-04-21T11:27:28.834Z,5.00
2023-04-21T11:29:58.404Z,3.85
2023-04-21T11:32:29.203Z,3.00
2023-04-21T11:34:58.484Z,3.15
2023-04-21T11:37:28.395Z,3.30
2023-04-21T11:40:00.588Z,2.92
2023-04-21T11:42:29.832Z,2.95
2023-04-21T11:44:58.470Z,2.90
2023-04-21T11:47:29.944Z,3.33
2023-04-21T11:50:00.643Z,3.47
2023-04-21T11:52:32.852Z,3.22
2023-04-21T11:55:03.311Z,2.88
2023-04-21T11:57:33.144Z,3.90
2023-04-21T12:00:03.942Z,3.08
2023-04-21T12:02:35.151Z,2.75
2023-04-21T12:05:05.821Z,3.45
2023-04-21T12:07:36.124Z,3.30
2023-04-21T12:10:12.034Z,2.90
2023-04-21T12:12:41.148Z,2.95
2023-04-21T12:15:11.614Z,3.20
2023-04-21T12:17:45.300Z,2.65
2023-04-21T12:20:17.247Z,2.60
2023-04-21T12:22:47.770Z,2.47
2023-04-21T12:25:16.390Z,2.30
2023-04-21T12:27:52.489Z,2.10
2023-04-21T12:30:21.270Z,2.25
2023-04-21T12:32:52.675Z,2.13
2023-04-21T12:35:21.046Z,2.40
2023-04-21T12:37:49.796Z,2.35
2023-04-21T12:40:18.926Z,2.38
2023-04-21T12:42:49.076Z,2.40
2023-04-21T12:45:17.523Z,1.98
2023-04-21T12:47:47.114Z,2.40
2023-04-21T12:50:17.059Z,2.35
2023-04-21T12:52:46.155Z,2.50
2023-04-21T12:55:15.080Z,2.58
2023-04-21T12:57:43.472Z,2.38
2023-04-21T13:00:15.282Z,1.90
2023-04-21T13:02:43.766Z,2.03
2023-04-21T13:05:13.847Z,1.85
2023-04-21T13:07:43.690Z,1.90
2023-04-21T13:10:12.924Z,1.88
2023-04-21T13:12:41.926Z,1.73
2023-04-21T13:15:11.547Z,1.73
2023-04-21T13:17:40.047Z,1.60
2023-04-21T13:20:09.213Z,1.60
2023-04-21T13:22:38.632Z,1.75
2023-04-21T13:25:09.412Z,1.50
2023-04-21T13:27:40.502Z,1.55
2023-04-21T13:30:10.461Z,1.58
2023-04-21T13:32:39.750Z,1.40
2023-04-21T13:35:10.574Z,1.17
2023-04-21T13:37:39.784Z,1.30
2023-04-21T13:40:11.775Z,1.45
2023-04-21T13:42:40.780Z,1.40
2023-04-21T13:45:11.078Z,1.60
2023-04-21T13:47:39.747Z,1.52
2023-04-21T13:50:09.945Z,1.50
2023-04-21T13:52:38.448Z,1.60
2023-04-21T13:55:10.535Z,1.35
2023-04-21T13:57:39.597Z,1.45
2023-04-21T14:00:10.831Z,1.30
2023-04-21T14:02:41.242Z,1.40
2023-04-21T14:05:10.115Z,1.30
2023-04-21T14:07:39.728Z,1.38
2023-04-21T14:10:11.489Z,1.60
2023-04-21T14:12:39.886Z,1.30
2023-04-21T14:15:10.133Z,1.50
2023-04-21T14:17:38.688Z,1.70
2023-04-21T14:20:09.735Z,1.30
2023-04-21T14:22:38.209Z,1.60
2023-04-21T14:25:10.259Z,1.33
2023-04-21T14:27:39.044Z,1.15
2023-04-21T14:30:08.844Z,1.25
2023-04-21T14:32:37.428Z,1.15
2023-04-21T14:35:07.070Z,1.50
2023-04-21T14:37:35.400Z,1.30
2023-04-21T14:40:05.104Z,1.58
2023-04-21T14:42:34.960Z,1.50
2023-04-21T14:45:03.459Z,1.50
2023-04-21T14:47:33.607Z,1.75
2023-04-21T14:50:02.226Z,1.70
2023-04-21T14:52:31.498Z,1.60
2023-04-21T14:55:00.622Z,1.73
2023-04-21T14:57:29.019Z,1.33
2023-04-21T14:59:59.009Z,1.40
2023-04-21T15:02:27.585Z,1.30
2023-04-21T15:04:57.841Z,1.27
2023-04-21T15:07:26.448Z,1.30
2023-04-21T15:09:55.467Z,1.10
2023-04-21T15:12:26.024Z,1.60
2023-04-21T15:14:54.399Z,1.42
2023-04-21T15:17:24.943Z,1.60
2023-04-21T15:19:53.274Z,1.38
2023-04-21T15:22:22.886Z,1.50
2023-04-21T15:24:54.376Z,1.40
2023-04-21T15:27:23.787Z,1.42
2023-04-21T15:29:52.326Z,1.50
2023-04-21T15:32:20.837Z,1.35
2023-04-21T15:34:51.299Z,1.75
2023-04-21T15:37:23.538Z,1.40
2023-04-21T15:39:53.847Z,1.20
2023-04-21T15:42:22.656Z,0.98
2023-04-21T15:44:51.522Z,1.27
2023-04-21T15:47:20.827Z,1.20
2023-04-21T15:49:49.294Z,1.30
2023-04-21T15:52:20.208Z,1.20
2023-04-21T15:54:48.649Z,1.20
2023-04-21T15:57:17.934Z,1.17
2023-04-21T15:59:46.458Z,1.60
2023-04-21T16:02:15.827Z,1.40
2023-04-21T16:04:44.884Z,1.40
2023-04-21T16:07:13.593Z,1.35
2023-04-21T16:09:46.585Z,1.40
2023-04-21T16:12:15.064Z,1.30
2023-04-21T16:14:54.616Z,1.30
2023-04-21T16:17:28.044Z,1.30
2023-04-21T16:19:56.564Z,0.93
2023-04-21T16:22:25.059Z,1.10
2023-04-21T16:24:55.359Z,1.15
2023-04-21T16:27:24.283Z,1.20
2023-04-21T16:29:52.616Z,1.00
2023-04-21T16:32:21.908Z,1.05
2023-04-21T16:34:50.489Z,1.40
2023-04-21T16:37:20.424Z,1.35
2023-04-21T16:39:48.750Z,1.30
2023-04-21T16:42:19.644Z,1.27
2023-04-21T16:44:48.004Z,1.20
2023-04-21T16:47:16.903Z,1.15
2023-04-21T16:49:45.346Z,1.20
2023-04-21T16:52:14.777Z,1.42
2023-04-21T16:54:43.575Z,1.20
2023-04-21T16:57:11.909Z,1.13
2023-04-21T16:59:42.693Z,1.30
2023-04-21T17:02:11.227Z,1.10
2023-04-21T17:04:40.574Z,1.20
2023-04-21T17:07:09.094Z,1.30
2023-04-21T17:09:39.024Z,1.58
2023-04-21T17:12:07.896Z,1.38
2023-04-21T17:14:36.963Z,1.50
2023-04-21T17:17:07.603Z,1.23
2023-04-21T17:19:36.268Z,1.60
2023-04-21T17:22:05.340Z,1.75
2023-04-21T17:24:44.928Z,1.50
2023-04-21T17:27:21.482Z,1.55
2023-04-21T17:29:50.056Z,1.67
2023-04-21T17:32:20.629Z,1.60
2023-04-21T17:34:49.067Z,1.40
2023-04-21T17:37:18.479Z,1.70
2023-04-21T17:39:46.814Z,1.42
2023-04-21T17:42:15.186Z,1.60
2023-04-21T17:44:43.899Z,1.73
2023-04-21T17:47:12.797Z,1.60
2023-04-21T17:49:42.479Z,1.50
2023-04-21T17:52:10.792Z,1.90
2023-04-21T17:54:40.870Z,1.95
2023-04-21T17:57:09.343Z,2.25
2023-04-21T17:59:38.106Z,1.85
2023-04-21T18:02:06.538Z,1.90
2023-04-21T18:04:35.500Z,2.10
2023-04-21T18:07:05.895Z,1.83
2023-04-21T18:09:34.793Z,2.05
2023-04-21T18:12:03.979Z,1.98
2023-04-21T18:14:33.240Z,2.03
2023-04-21T18:17:01.730Z,2.05
2023-04-21T18:19:30.679Z,1.73
2023-04-21T18:21:59.152Z,1.85
2023-04-21T18:24:29.798Z,2.20
2023-04-21T18:26:58.389Z,1.95
2023-04-21T18:29:27.261Z,2.65
2023-04-21T18:31:56.689Z,2.20
2023-04-21T18:34:25.176Z,2.10
2023-04-21T18:36:54.438Z,1.80
2023-04-21T18:39:22.763Z,1.83
2023-04-21T18:41:53.520Z,2.17
2023-04-21T18:44:21.904Z,1.85
2023-04-21T18:46:51.192Z,2.20
2023-04-21T18:49:20.031Z,2.30
2023-04-21T18:51:48.487Z,2.10
2023-04-21T18:54:17.990Z,2.33
2023-04-21T18:56:47.534Z,2.53
2023-04-21T18:59:17.549Z,2.38
2023-04-21T19:01:47.003Z,2.53
2023-04-21T19:04:15.673Z,1.65
2023-04-21T19:06:45.559Z,2.30
2023-04-21T19:09:14.099Z,3.08
2023-04-21T19:11:43.150Z,15.38
2023-04-21T19:14:12.479Z,21.55
2023-04-21T19:16:42.275Z,29.75
2023-04-21T19:19:11.696Z,30.70
2023-04-21T19:21:40.121Z,18.70
2023-04-21T19:24:08.617Z,9.25
2023-04-21T19:26:37.006Z,7.78
2023-04-21T19:29:09.080Z,6.55
2023-04-21T19:31:37.493Z,5.60
2023-04-21T19:34:07.683Z,5.05
2023-04-21T19:36:36.660Z,4.18
2023-04-21T19:39:06.717Z,4.15
2023-04-21T19:41:35.307Z,4.10
2023-04-21T19:44:04.138Z,3.40
2023-04-21T19:46:34.031Z,3.90
2023-04-21T19:49:02.762Z,3.20
2023-04-21T19:51:32.922Z,3.00
2023-04-21T19:54:10.642Z,4.63
2023-04-21T19:56:39.978Z,5.45
2023-04-21T19:59:09.300Z,7.25
2023-04-21T20:01:37.824Z,6.43
2023-04-21T20:04:07.877Z,5.30
2023-04-21T20:06:40.111Z,3.15
2023-04-21T20:09:10.582Z,2.42
2023-04-21T20:11:38.934Z,2.25
2023-04-21T20:14:07.649Z,2.20
2023-04-21T20:16:36.176Z,2.67
2023-04-21T20:19:05.812Z,2.20
2023-04-21T20:21:34.827Z,2.22
2023-04-21T20:24:04.740Z,2.75
2023-04-21T20:26:33.550Z,2.67
2023-04-21T20:29:02.904Z,2.38
2023-04-21T20:31:31.910Z,2.75
2023-04-21T20:34:00.309Z,2.83
2023-04-21T20:36:29.687Z,2.90
2023-04-21T20:39:00.443Z,2.72
2023-04-21T20:41:31.294Z,2.83
2023-04-21T20:44:01.608Z,2.53
2023-04-21T20:46:30.133Z,2.38
2023-04-21T20:48:59.018Z,2.95
2023-04-21T20:51:27.646Z,3.15
2023-04-21T20:53:56.797Z,2.60
2023-04-21T20:56:25.509Z,3.15
2023-04-21T20:58:56.141Z,3.05
2023-04-21T21:01:24.881Z,3.00
2023-04-21T21:03:53.925Z,2.63
2023-04-21T21:06:23.221Z,3.00
2023-04-21T21:08:51.624Z,3.03
2023-04-21T21:11:21.959Z,2.70
2023-04-21T21:13:50.252Z,2.92
2023-04-21T21:16:21.205Z,3.22
2023-04-21T21:18:49.685Z,3.45
2023-04-21T21:21:18.524Z,2.90
2023-04-21T21:23:46.996Z,3.00
2023-04-21T21:26:15.796Z,3.28
2023-04-21T21:28:44.188Z,2.65
2023-04-21T21:31:12.945Z,3.15
2023-04-21T21:33:42.645Z,3.15
2023-04-21T21:36:12.674Z,2.90
2023-04-21T21:38:41.577Z,3.40
2023-04-21T21:41:12.220Z,2.83
2023-04-21T21:43:40.924Z,2.97
2023-04-21T21:46:10.221Z,3.28
2023-04-21T21:48:39.196Z,4.68
2023-04-21T21:51:09.351Z,5.70
2023-04-21T21:53:38.859Z,5.38
2023-04-21T21:56:07.500Z,4.85
2023-04-21T21:58:36.718Z,5.07
2023-04-21T22:01:05.604Z,4.18
2023-04-21T22:03:35.874Z,4.82
2023-04-21T22:06:04.497Z,4.68
2023-04-21T22:08:34.994Z,4.25
2023-04-21T22:11:05.823Z,4.00
2023-04-21T22:13:34.911Z,4.03
2023-04-21T22:16:04.208Z,4.40
2023-04-21T22:18:32.877Z,4.30
2023-04-21T22:21:02.080Z,4.30
2023-04-21T22:23:30.606Z,4.05
2023-04-21T22:26:02.168Z,3.92
2023-04-21T22:28:30.957Z,4.03
2023-04-21T22:30:59.396Z,3.60
2023-04-21T22:33:29.185Z,4.10
2023-04-21T22:35:57.579Z,3.97
2023-04-21T22:38:26.349Z,3.85
2023-04-21T22:40:54.761Z,3.38
2023-04-21T22:43:25.718Z,3.70
2023-04-21T22:45:54.416Z,3.50
2023-04-21T22:48:26.154Z,3.97
2023-04-21T22:50:55.476Z,6.10
2023-04-21T22:53:25.222Z,6.05
2023-04-21T22:55:53.897Z,4.85
2023-04-21T22:58:22.775Z,5.57
2023-04-21T23:00:52.763Z,4.43
2023-04-21T23:03:23.210Z,4.35
2023-04-21T23:05:52.330Z,4.03
2023-04-21T23:08:20.655Z,3.80
2023-04-21T23:10:50.137Z,3.65
2023-04-21T23:13:18.540Z,3.65
2023-04-21T23:15:47.011Z,5.20
2023-04-21T23:18:17.044Z,5.43
2023-04-21T23:20:45.416Z,4.82
2023-04-21T23:23:14.593Z,4.32
2023-04-21T23:25:42.916Z,4.35
2023-04-21T23:28:11.693Z,3.85
2023-04-21T23:30:40.667Z,3.95
2023-04-21T23:33:09.135Z,3.80
2023-04-21T23:35:39.311Z,4.00
2023-04-21T23:38:07.666Z,4.30
2023-04-21T23:40:36.432Z,4.10
2023-04-21T23:43:04.980Z,4.53
2023-04-21T23:45:34.388Z,4.00
2023-04-21T23:48:02.797Z,4.97
2023-04-21T23:50:31.815Z,4.60
2023-04-21T23:53:01.679Z,4.70
2023-04-21T23:55:30.092Z,5.15
2023-04-21T23:57:58.474Z,4.78
